createdAt,value
2022-11-14T00:01:18.315Z,11.50
2022-11-14T00:04:04.396Z,11.50
2022-11-14T00:06:50.320Z,11.50
2022-11-14T00:09:38.683Z,11.50
2022-11-14T00:12:25.009Z,11.50
2022-11-14T00:15:12.205Z,11.50
2022-11-14T00:17:57.864Z,11.50
2022-11-14T00:20:43.889Z,11.60
2022-11-14T00:23:29.843Z,11.50
2022-11-14T00:26:15.933Z,11.50
2022-11-14T00:29:01.830Z,11.50
2022-11-14T00:31:47.681Z,11.50
2022-11-14T00:34:33.847Z,11.50
2022-11-14T00:37:19.950Z,11.50
2022-11-14T00:40:06.398Z,11.60
2022-11-14T00:42:52.546Z,11.60
2022-11-14T00:45:38.331Z,11.60
2022-11-14T00:48:24.205Z,11.50
2022-11-14T00:51:10.555Z,11.50
2022-11-14T00:53:56.284Z,11.50
2022-11-14T00:56:42.187Z,11.50
2022-11-14T00:59:27.841Z,11.50
2022-11-14T01:02:14.129Z,11.50
2022-11-14T01:05:00.673Z,11.50
2022-11-14T01:07:46.633Z,11.50
2022-11-14T01:10:32.215Z,11.40
2022-11-14T01:13:19.370Z,11.40
2022-11-14T01:16:06.349Z,11.50
2022-11-14T01:18:52.575Z,11.50
2022-11-14T01:21:38.835Z,11.40
2022-11-14T01:24:25.004Z,11.40
2022-11-14T01:27:11.072Z,11.40
2022-11-14T01:29:56.987Z,11.40
2022-11-14T01:32:43.055Z,11.40
2022-11-14T01:35:29.133Z,11.40
2022-11-14T01:38:15.620Z,11.40
2022-11-14T01:41:02.361Z,11.40
2022-11-14T01:43:48.648Z,11.40
2022-11-14T01:46:41.072Z,11.40
2022-11-14T01:49:34.472Z,11.40
2022-11-14T01:52:23.415Z,11.40
2022-11-14T01:55:10.821Z,11.40
2022-11-14T01:57:57.983Z,11.50
2022-11-14T02:00:44.972Z,11.50
2022-11-14T02:03:31.563Z,11.50
2022-11-14T02:06:21.180Z,11.50
2022-11-14T02:09:08.506Z,11.60
2022-11-14T02:11:56.791Z,11.50
2022-11-14T02:14:47.723Z,11.50
2022-11-14T02:17:33.595Z,11.50
2022-11-14T02:20:28.629Z,11.40
2022-11-14T02:23:15.932Z,11.40
2022-11-14T02:26:01.725Z,11.50
2022-11-14T02:28:48.320Z,11.40
2022-11-14T02:31:34.962Z,11.50
2022-11-14T02:34:21.065Z,11.40
2022-11-14T02:37:07.625Z,11.40
2022-11-14T02:39:53.660Z,11.50
2022-11-14T02:42:39.421Z,11.40
2022-11-14T02:45:26.625Z,11.50
2022-11-14T02:48:12.793Z,11.50
2022-11-14T02:50:58.940Z,11.40
2022-11-14T02:53:44.699Z,11.50
2022-11-14T02:56:30.803Z,11.40
2022-11-14T02:59:16.878Z,11.50
2022-11-14T03:02:03.047Z,11.50
2022-11-14T03:04:49.080Z,11.50
2022-11-14T03:07:35.165Z,11.50
2022-11-14T03:10:22.191Z,11.50
2022-11-14T03:13:08.239Z,11.40
2022-11-14T03:15:54.062Z,11.40
2022-11-14T03:18:40.285Z,11.40
2022-11-14T03:21:26.363Z,11.40
2022-11-14T03:24:12.759Z,11.40
2022-11-14T03:26:58.670Z,11.40
2022-11-14T03:29:44.240Z,11.40
2022-11-14T03:32:30.100Z,11.50
2022-11-14T03:35:16.136Z,11.50
2022-11-14T03:38:02.094Z,11.40
2022-11-14T03:40:48.179Z,11.40
2022-11-14T03:43:34.858Z,11.40
2022-11-14T03:46:21.071Z,11.50
2022-11-14T03:49:06.798Z,11.40
2022-11-14T03:51:52.666Z,11.50
2022-11-14T03:54:38.711Z,11.50
2022-11-14T03:57:24.590Z,11.50
2022-11-14T04:00:10.944Z,11.50
2022-11-14T04:02:57.962Z,11.50
2022-11-14T04:05:45.167Z,11.50
2022-11-14T04:08:31.582Z,11.60
2022-11-14T04:11:17.981Z,11.50
2022-11-14T04:14:04.003Z,11.50
2022-11-14T04:16:50.140Z,11.50
2022-11-14T04:19:36.380Z,11.50
2022-11-14T04:22:22.471Z,11.50
2022-11-14T04:25:09.622Z,11.50
2022-11-14T04:27:55.406Z,11.50
2022-11-14T04:30:41.165Z,11.50
2022-11-14T04:33:27.290Z,11.50
2022-11-14T04:36:13.184Z,11.60
2022-11-14T04:38:59.109Z,11.60
2022-11-14T04:41:45.366Z,11.60
2022-11-14T04:44:31.196Z,11.60
2022-11-14T04:47:17.227Z,11.60
2022-11-14T04:50:04.526Z,11.60
2022-11-14T04:52:54.025Z,11.60
2022-11-14T04:55:40.448Z,11.60
2022-11-14T04:58:26.783Z,11.60
2022-11-14T05:01:14.291Z,11.60
2022-11-14T05:04:00.455Z,11.60
2022-11-14T05:06:46.479Z,11.70
2022-11-14T05:09:32.361Z,11.70
2022-11-14T05:12:18.472Z,11.70
2022-11-14T05:15:05.031Z,11.60
2022-11-14T05:17:51.244Z,11.60
2022-11-14T05:20:37.754Z,11.60
2022-11-14T05:23:24.422Z,11.70
2022-11-14T05:26:16.456Z,11.60
2022-11-14T05:29:02.646Z,11.70
2022-11-14T05:31:49.006Z,11.70
2022-11-14T05:34:34.950Z,11.70
2022-11-14T05:37:20.976Z,11.70
2022-11-14T05:40:07.084Z,11.70
2022-11-14T05:42:56.196Z,11.70
2022-11-14T05:45:42.325Z,11.80
2022-11-14T05:48:29.113Z,11.80
2022-11-14T05:51:15.542Z,11.80
2022-11-14T05:54:01.526Z,11.70
2022-11-14T05:56:47.703Z,11.70
2022-11-14T05:59:33.788Z,11.70
2022-11-14T06:02:19.682Z,11.70
2022-11-14T06:05:05.802Z,11.70
2022-11-14T06:07:59.133Z,11.70
2022-11-14T06:10:45.017Z,11.80
2022-11-14T06:13:31.877Z,11.70
2022-11-14T06:16:19.263Z,11.70
2022-11-14T06:19:05.467Z,11.70
2022-11-14T06:21:51.538Z,11.70
2022-11-14T06:24:37.864Z,11.70
2022-11-14T06:27:24.025Z,11.70
2022-11-14T06:30:10.566Z,11.70
2022-11-14T06:32:59.634Z,11.70
2022-11-14T06:35:45.318Z,11.70
2022-11-14T06:38:32.835Z,11.70
2022-11-14T06:41:21.254Z,11.80
2022-11-14T06:44:09.012Z,11.80
2022-11-14T06:46:56.429Z,11.80
2022-11-14T06:49:42.355Z,11.80
2022-11-14T06:52:28.403Z,11.70
2022-11-14T06:55:14.690Z,11.80
2022-11-14T06:58:00.502Z,11.80
2022-11-14T07:00:46.626Z,11.80
2022-11-14T07:03:33.746Z,11.70
2022-11-14T07:06:22.839Z,11.80
2022-11-14T07:09:11.320Z,11.80
2022-11-14T07:11:57.376Z,11.80
2022-11-14T07:14:43.307Z,11.80
2022-11-14T07:17:31.334Z,11.80
2022-11-14T07:20:21.193Z,11.80
2022-11-14T07:23:07.421Z,11.80
2022-11-14T07:25:53.744Z,11.80
2022-11-14T07:28:41.311Z,11.70
2022-11-14T07:31:27.133Z,11.80
2022-11-14T07:34:13.610Z,11.80
2022-11-14T07:36:59.498Z,11.80
2022-11-14T07:39:46.179Z,11.80
2022-11-14T07:42:32.226Z,11.80
2022-11-14T07:45:20.034Z,11.80
2022-11-14T07:48:06.467Z,11.80
2022-11-14T07:50:52.718Z,11.80
2022-11-14T07:53:38.660Z,11.80
2022-11-14T07:56:25.934Z,11.80
2022-11-14T07:59:11.714Z,11.90
2022-11-14T08:01:58.387Z,11.80
2022-11-14T08:04:44.312Z,11.90
2022-11-14T08:07:30.004Z,11.90
2022-11-14T08:10:16.293Z,11.80
2022-11-14T08:16:14.108Z,11.80
2022-11-14T08:19:01.258Z,11.80
2022-11-14T08:21:47.080Z,11.80
2022-11-14T08:24:33.284Z,11.80
2022-11-14T08:27:19.113Z,11.90
2022-11-14T08:30:05.385Z,11.90
2022-11-14T08:32:51.868Z,11.90
2022-11-14T08:35:37.616Z,11.90
2022-11-14T08:38:24.489Z,11.90
2022-11-14T08:41:10.985Z,11.90
2022-11-14T08:43:57.445Z,12.00
2022-11-14T08:46:43.828Z,11.90
2022-11-14T08:49:29.927Z,11.90
2022-11-14T08:52:17.027Z,12.00
2022-11-14T08:55:03.048Z,11.90
2022-11-14T08:57:49.903Z,11.90
2022-11-14T09:00:36.389Z,11.90
2022-11-14T09:03:22.293Z,11.90
2022-11-14T09:06:08.526Z,11.90
2022-11-14T09:08:54.767Z,11.80
2022-11-14T09:11:41.238Z,11.80
2022-11-14T09:14:27.352Z,11.80
2022-11-14T09:17:13.590Z,11.70
2022-11-14T09:19:59.835Z,11.70
2022-11-14T09:22:46.244Z,11.70
2022-11-14T09:25:32.850Z,11.70
2022-11-14T09:28:18.925Z,11.70
2022-11-14T09:31:10.558Z,11.70
2022-11-14T09:33:56.972Z,11.70
2022-11-14T09:36:43.075Z,11.70
2022-11-14T09:39:28.938Z,11.70
2022-11-14T09:42:17.397Z,11.70
2022-11-14T09:45:10.581Z,11.70
2022-11-14T09:48:12.550Z,11.70
2022-11-14T09:51:08.654Z,11.70
2022-11-14T09:54:20.878Z,11.70
2022-11-14T09:57:15.556Z,11.70
2022-11-14T10:00:01.997Z,11.70
2022-11-14T10:03:13.165Z,11.80
2022-11-14T10:06:22.838Z,11.70
2022-11-14T10:09:39.309Z,11.70
2022-11-14T10:12:51.473Z,11.70
2022-11-14T10:15:49.575Z,11.70
2022-11-14T10:18:57.416Z,11.80
2022-11-14T10:22:09.796Z,11.80
2022-11-14T10:25:10.646Z,11.90
2022-11-14T10:28:11.405Z,11.90
2022-11-14T10:31:03.320Z,12.00
2022-11-14T10:34:10.667Z,12.00
2022-11-14T10:37:02.353Z,12.00
2022-11-14T10:40:08.776Z,12.10
2022-11-14T10:43:04.621Z,12.00
2022-11-14T10:46:05.435Z,12.00
2022-11-14T10:48:55.010Z,11.90
2022-11-14T10:51:46.908Z,12.00
2022-11-14T10:54:36.939Z,12.00
2022-11-14T10:57:23.116Z,12.00
2022-11-14T11:00:20.460Z,12.00
2022-11-14T11:03:07.651Z,11.90
2022-11-14T11:05:59.968Z,11.90
2022-11-14T11:09:04.724Z,11.90
2022-11-14T11:11:59.252Z,11.80
2022-11-14T11:14:47.240Z,11.80
2022-11-14T11:17:40.097Z,11.80
2022-11-14T11:20:32.194Z,11.80
2022-11-14T11:23:25.473Z,11.80
2022-11-14T11:26:24.314Z,11.80
2022-11-14T11:29:10.103Z,11.80
2022-11-14T11:31:58.350Z,11.80
2022-11-14T11:34:45.607Z,11.80
2022-11-14T11:37:36.906Z,11.80
2022-11-14T11:40:27.003Z,11.80
2022-11-14T11:43:43.363Z,11.80
2022-11-14T11:46:46.720Z,11.80
2022-11-14T11:49:50.106Z,11.70
2022-11-14T11:52:59.434Z,11.70
2022-11-14T11:55:56.763Z,11.70
2022-11-14T11:58:48.218Z,11.70
2022-11-14T12:01:34.037Z,11.60
2022-11-14T12:04:20.115Z,11.60
2022-11-14T12:07:12.455Z,11.60
2022-11-14T12:10:10.311Z,11.60
2022-11-14T12:13:18.249Z,11.60
2022-11-14T12:16:18.335Z,11.60
2022-11-14T12:19:42.462Z,11.60
2022-11-14T12:23:05.687Z,11.60
2022-11-14T12:26:07.170Z,11.60
2022-11-14T12:29:02.126Z,11.60
2022-11-14T12:31:48.641Z,11.60
2022-11-14T12:34:40.087Z,11.60
2022-11-14T12:37:35.131Z,11.60
2022-11-14T12:40:36.238Z,11.60
2022-11-14T12:43:36.368Z,11.50
2022-11-14T12:46:23.390Z,11.50
2022-11-14T12:49:37.301Z,11.50
2022-11-14T12:52:42.942Z,11.50
2022-11-14T12:55:32.012Z,11.50
2022-11-14T12:58:21.085Z,11.50
2022-11-14T13:01:27.298Z,11.50
2022-11-14T13:04:41.844Z,11.50
2022-11-14T13:07:34.757Z,11.50
2022-11-14T13:10:32.015Z,11.50
2022-11-14T13:13:36.946Z,11.50
2022-11-14T13:16:49.904Z,11.50
2022-11-14T13:20:03.653Z,11.60
2022-11-14T13:22:49.695Z,11.50
2022-11-14T13:25:35.485Z,11.50
2022-11-14T13:28:39.556Z,11.50
2022-11-14T13:31:38.647Z,11.50
2022-11-14T13:34:46.284Z,11.40
2022-11-14T13:38:03.740Z,11.50
2022-11-14T13:41:11.031Z,11.50
2022-11-14T13:44:04.503Z,11.40
2022-11-14T13:47:12.021Z,11.40
2022-11-14T13:50:03.617Z,11.40
2022-11-14T13:52:49.593Z,11.40
2022-11-14T13:55:47.441Z,11.30
2022-11-14T13:59:07.976Z,11.30
2022-11-14T14:02:11.583Z,11.30
2022-11-14T14:05:15.489Z,11.30
2022-11-14T14:08:32.035Z,11.20
2022-11-14T14:11:33.148Z,11.20
2022-11-14T14:14:46.977Z,11.20
2022-11-14T14:17:52.631Z,11.30
2022-11-14T14:20:50.665Z,11.20
2022-11-14T14:23:42.643Z,11.20
2022-11-14T14:26:56.624Z,11.10
2022-11-14T14:29:58.157Z,11.10
2022-11-14T14:32:44.591Z,11.10
2022-11-14T14:35:39.052Z,11.10
2022-11-14T14:38:29.248Z,11.10
2022-11-14T14:41:18.299Z,11.10
2022-11-14T14:44:04.541Z,11.10
2022-11-14T14:46:50.499Z,11.10
2022-11-14T14:49:38.619Z,11.10
2022-11-14T14:52:33.751Z,11.10
2022-11-14T14:55:25.969Z,11.00
2022-11-14T14:58:27.223Z,11.00
2022-11-14T15:01:15.907Z,11.00
2022-11-14T15:04:04.116Z,11.00
2022-11-14T15:06:51.548Z,11.00
2022-11-14T15:09:37.543Z,11.00
2022-11-14T15:12:26.611Z,11.00
2022-11-14T15:15:15.498Z,10.90
2022-11-14T15:18:05.363Z,10.80
2022-11-14T15:21:15.109Z,10.80
2022-11-14T15:24:02.413Z,10.90
2022-11-14T15:26:49.952Z,10.90
2022-11-14T15:29:35.969Z,10.90
2022-11-14T15:32:24.403Z,10.90
2022-11-14T15:35:24.946Z,10.90
2022-11-14T15:38:41.914Z,10.90
2022-11-14T15:41:19.070Z,10.90
2022-11-14T15:44:05.784Z,10.80
2022-11-14T15:46:52.075Z,10.80
2022-11-14T15:49:38.419Z,10.80
2022-11-14T15:52:40.021Z,10.80
2022-11-14T15:55:26.074Z,10.80
2022-11-14T15:58:27.810Z,10.80
2022-11-14T16:01:27.092Z,10.80
2022-11-14T16:04:25.484Z,10.80
2022-11-14T16:07:16.759Z,10.80
2022-11-14T16:10:03.386Z,10.70
2022-11-14T16:12:52.416Z,10.70
2022-11-14T16:15:38.733Z,10.80
2022-11-14T16:18:24.797Z,10.80
2022-11-14T16:21:18.380Z,10.80
2022-11-14T16:24:04.608Z,10.70
2022-11-14T16:26:51.026Z,10.70
2022-11-14T16:29:36.984Z,10.70
2022-11-14T16:32:23.550Z,10.70
2022-11-14T16:35:14.365Z,10.70
2022-11-14T16:38:00.110Z,10.70
2022-11-14T16:40:46.132Z,10.80
2022-11-14T16:43:32.560Z,10.80
2022-11-14T16:46:18.462Z,10.80
2022-11-14T16:49:04.570Z,10.70
2022-11-14T16:51:51.842Z,10.70
2022-11-14T16:54:37.486Z,10.70
2022-11-14T16:57:24.349Z,10.70
2022-11-14T17:00:12.821Z,10.70
2022-11-14T17:02:59.218Z,10.80
2022-11-14T17:05:47.307Z,10.80
2022-11-14T17:08:33.278Z,10.70
2022-11-14T17:11:19.387Z,10.70
2022-11-14T17:14:05.565Z,10.70
2022-11-14T17:16:51.296Z,10.70
2022-11-14T17:19:39.418Z,10.80
2022-11-14T17:22:25.072Z,10.70
2022-11-14T17:25:11.690Z,10.80
2022-11-14T17:27:57.412Z,10.80
2022-11-14T17:30:43.884Z,10.80
2022-11-14T17:33:30.156Z,10.80
2022-11-14T17:36:17.685Z,10.80
2022-11-14T17:39:03.473Z,10.80
2022-11-14T17:41:49.437Z,10.70
2022-11-14T17:44:35.174Z,10.70
2022-11-14T17:47:20.904Z,10.70
2022-11-14T17:50:07.131Z,10.70
2022-11-14T17:52:53.128Z,10.70
2022-11-14T17:55:38.864Z,10.70
2022-11-14T17:58:25.118Z,10.70
2022-11-14T18:01:12.985Z,10.70
2022-11-14T18:04:04.489Z,10.70
2022-11-14T18:06:50.725Z,10.80
2022-11-14T18:09:37.034Z,10.80
2022-11-14T18:12:23.329Z,10.80
2022-11-14T18:15:10.018Z,10.80
2022-11-14T18:17:56.216Z,10.70
2022-11-14T18:20:42.313Z,10.80
2022-11-14T18:23:28.313Z,10.80
2022-11-14T18:26:15.659Z,10.80
2022-11-14T18:29:04.613Z,10.80
2022-11-14T18:31:51.076Z,10.80
2022-11-14T18:34:37.094Z,10.80
2022-11-14T18:37:23.442Z,10.80
2022-11-14T18:40:16.156Z,10.80
2022-11-14T18:43:02.813Z,10.80
2022-11-14T18:45:48.850Z,10.80
2022-11-14T18:48:35.998Z,10.80
2022-11-14T18:51:24.955Z,10.80
2022-11-14T18:54:18.954Z,10.80
2022-11-14T18:57:05.029Z,10.80
2022-11-14T18:59:51.056Z,10.80
2022-11-14T19:02:36.908Z,10.80
2022-11-14T19:05:22.964Z,10.80
2022-11-14T19:08:08.911Z,10.80
2022-11-14T19:11:00.982Z,10.80
2022-11-14T19:13:47.009Z,10.80
2022-11-14T19:16:35.219Z,10.80
2022-11-14T19:19:21.275Z,10.70
2022-11-14T19:22:07.202Z,10.70
2022-11-14T19:24:53.020Z,10.70
2022-11-14T19:27:39.950Z,10.70
2022-11-14T19:30:25.886Z,10.70
2022-11-14T19:33:11.759Z,10.70
2022-11-14T19:35:58.426Z,10.70
2022-11-14T19:38:44.464Z,10.70
2022-11-14T19:41:31.239Z,10.70
2022-11-14T19:44:16.941Z,10.80
2022-11-14T19:47:03.062Z,10.70
2022-11-14T19:49:49.685Z,10.80
2022-11-14T19:52:35.395Z,10.70
2022-11-14T19:55:21.386Z,10.70
2022-11-14T19:58:07.335Z,10.70
2022-11-14T20:00:53.240Z,10.70
2022-11-14T20:03:39.917Z,10.70
2022-11-14T20:06:34.257Z,10.70
2022-11-14T20:09:20.445Z,10.70
2022-11-14T20:12:06.635Z,10.70
2022-11-14T20:14:52.547Z,10.70
2022-11-14T20:17:38.652Z,10.70
2022-11-14T20:20:24.587Z,10.70
2022-11-14T20:23:10.622Z,10.60
2022-11-14T20:25:57.268Z,10.60
2022-11-14T20:28:44.559Z,10.70
2022-11-14T20:31:30.957Z,10.70
2022-11-14T20:34:18.118Z,10.60
2022-11-14T20:37:11.136Z,10.60
2022-11-14T20:39:57.854Z,10.60
2022-11-14T20:42:47.969Z,10.60
2022-11-14T20:45:34.078Z,10.60
2022-11-14T20:48:20.203Z,10.50
2022-11-14T20:51:10.551Z,10.60
2022-11-14T20:53:56.532Z,10.50
2022-11-14T20:56:42.272Z,10.50
2022-11-14T20:59:28.347Z,10.50
2022-11-14T21:02:14.989Z,10.50
2022-11-14T21:05:00.915Z,10.60
2022-11-14T21:07:46.740Z,10.50
2022-11-14T21:10:46.698Z,10.50
2022-11-14T21:13:54.487Z,10.50
2022-11-14T21:16:40.974Z,10.50
2022-11-14T21:19:34.850Z,10.50
2022-11-14T21:22:20.984Z,10.50
2022-11-14T21:25:07.490Z,10.50
2022-11-14T21:27:53.360Z,10.50
2022-11-14T21:30:39.071Z,10.50
2022-11-14T21:33:31.004Z,10.50
2022-11-14T21:39:24.084Z,10.50
2022-11-14T21:42:12.995Z,10.50
2022-11-14T21:45:03.556Z,10.60
2022-11-14T21:47:49.512Z,10.60
2022-11-14T21:50:35.518Z,10.60
2022-11-14T21:53:21.615Z,10.60
2022-11-14T21:56:13.178Z,10.60
2022-11-14T21:59:13.245Z,10.50
2022-11-14T22:02:18.162Z,10.60
2022-11-14T22:05:06.895Z,10.60
2022-11-14T22:07:53.355Z,10.50
2022-11-14T22:10:39.396Z,10.60
2022-11-14T22:13:25.678Z,10.50
2022-11-14T22:16:12.114Z,10.50
2022-11-14T22:19:04.953Z,10.60
2022-11-14T22:21:51.751Z,10.50
2022-11-14T22:24:37.744Z,10.50
2022-11-14T22:27:24.678Z,10.50
2022-11-14T22:30:11.341Z,10.50
2022-11-14T22:33:00.292Z,10.50
2022-11-14T22:35:46.142Z,10.60
2022-11-14T22:38:33.451Z,10.50
2022-11-14T22:41:32.297Z,10.50
2022-11-14T22:44:18.721Z,10.50
2022-11-14T22:47:04.726Z,10.50
2022-11-14T22:49:50.656Z,10.50
2022-11-14T22:52:36.719Z,10.50
2022-11-14T22:55:22.394Z,10.50
2022-11-14T22:58:08.492Z,10.50
2022-11-14T23:00:54.501Z,10.50
2022-11-14T23:03:41.035Z,10.50
2022-11-14T23:06:27.615Z,10.50
2022-11-14T23:09:13.234Z,10.50
2022-11-14T23:11:59.166Z,10.50
2022-11-14T23:14:44.875Z,10.50
2022-11-14T23:17:31.755Z,10.50
2022-11-14T23:20:17.972Z,10.50
2022-11-14T23:23:04.067Z,10.50
2022-11-14T23:25:50.080Z,10.50
2022-11-14T23:28:36.658Z,10.50
2022-11-14T23:31:22.814Z,10.50
2022-11-14T23:34:08.751Z,10.60
2022-11-14T23:36:54.290Z,10.50
2022-11-14T23:39:40.403Z,10.50
2022-11-14T23:42:26.465Z,10.50
2022-11-14T23:45:12.493Z,10.50
2022-11-14T23:47:58.473Z,10.50
2022-11-14T23:50:44.649Z,10.50
2022-11-14T23:53:31.159Z,10.60
2022-11-14T23:56:17.409Z,10.50
2022-11-14T23:59:03.649Z,10.50
